Time;durP1;ratioP1;P1;durP2;ratioP2;P2;SDS_P1;SDS_P2;PMS_P1;PMS_P2;Temp;Humidity;BMP_temperature;BMP_pressure;BME280_temperature;BME280_humidity;BME280_pressure;Samples;Min_cycle;Max_cycle;Signal;HPM_P1;HPM_P2
2023/06/27 00:20:34;;;;;;;9.60;4.30;;;14.20;99.90;;;;;;5075994;23;20045;-71
2023/06/27 01:05:33;;;;;;;8.10;4.50;;;13.50;99.90;;;;;;5885454;23;20048;-69
2023/06/27 01:08:09;;;;;;;10.25;4.65;;;13.40;99.90;;;;;;5020566;28;20041;-70
2023/06/27 01:10:37;;;;;;;11.18;4.90;;;13.50;99.90;;;;;;5032805;28;20506;-70
2023/06/27 01:13:10;;;;;;;10.63;4.47;;;13.50;99.90;;;;;;5290965;23;20024;-70
2023/06/27 01:24:48;;;;;;;11.07;4.65;;;13.50;99.90;;;;;;5234887;23;20537;-65
2023/06/27 01:27:14;;;;;;;12.75;5.00;;;13.50;99.90;;;;;;5032240;28;20033;-63
2023/06/27 01:29:41;;;;;;;11.52;5.15;;;13.50;99.90;;;;;;5023901;28;20041;-64
2023/06/27 01:32:24;;;;;;;8.05;5.13;;;13.40;99.90;;;;;;5031444;28;20524;-64
2023/06/27 01:35:24;;;;;;;8.13;4.93;;;13.40;99.90;;;;;;5011972;28;20408;-64
2023/06/27 01:37:55;;;;;;;9.57;5.22;;;13.30;99.90;;;;;;5018105;28;20180;-62
2023/06/27 01:40:23;;;;;;;9.07;5.00;;;13.30;99.90;;;;;;5028854;28;20029;-62
2023/06/27 01:42:55;;;;;;;9.73;4.97;;;13.30;99.90;;;;;;5031625;28;20041;-64
2023/06/27 01:45:23;;;;;;;8.95;4.70;;;13.30;99.90;;;;;;5018007;28;20034;-62
2023/06/27 01:47:49;;;;;;;7.05;4.22;;;13.20;99.90;;;;;;5030689;28;20036;-62
2023/06/27 01:50:15;;;;;;;8.32;4.35;;;13.10;99.90;;;;;;5034087;28;20124;-63
2023/06/27 01:52:41;;;;;;;8.50;5.13;;;13.10;99.90;;;;;;5025104;28;20124;-62
2023/06/27 01:55:08;;;;;;;8.32;5.60;;;13.10;99.90;;;;;;5024152;28;20030;-63
2023/06/27 01:57:34;;;;;;;11.45;5.78;;;13.10;99.90;;;;;;5030416;28;20037;-63
2023/06/27 01:59:59;;;;;;;10.50;6.10;;;13.00;99.90;;;;;;5025814;28;20048;-62
2023/06/27 02:02:25;;;;;;;9.70;6.30;;;13.00;99.90;;;;;;5024682;28;20036;-64
2023/06/27 02:04:51;;;;;;;8.00;5.40;;;13.00;99.90;;;;;;5039327;28;20522;-62
2023/06/27 02:07:17;;;;;;;11.25;5.95;;;13.00;99.90;;;;;;5027553;28;20045;-62
2023/06/27 02:09:42;;;;;;;9.38;6.30;;;13.00;99.90;;;;;;5014962;28;20450;-62
2023/06/27 02:12:09;;;;;;;14.10;5.90;;;13.00;99.90;;;;;;5021890;28;20030;-62
2023/06/27 02:14:35;;;;;;;11.05;6.13;;;13.00;99.90;;;;;;5039058;28;20052;-63
2023/06/27 02:17:00;;;;;;;10.88;6.57;;;13.00;99.90;;;;;;5022379;28;20042;-62
2023/06/27 02:19:26;;;;;;;12.50;6.60;;;13.00;99.90;;;;;;5028716;28;20025;-63
2023/06/27 02:21:52;;;;;;;9.88;6.22;;;12.90;99.90;;;;;;5031068;28;20121;-63
2023/06/27 02:24:17;;;;;;;13.55;6.53;;;12.80;99.90;;;;;;5031460;28;20045;-62
2023/06/27 02:26:44;;;;;;;10.32;5.88;;;12.70;99.90;;;;;;5017365;28;20137;-62
2023/06/27 02:29:09;;;;;;;12.85;7.10;;;12.70;99.90;;;;;;5019594;28;20037;-62
2023/06/27 02:31:35;;;;;;;10.82;6.65;;;12.70;99.90;;;;;;5031187;28;20044;-62
2023/06/27 02:34:01;;;;;;;11.13;7.03;;;12.70;99.90;;;;;;5031296;28;20134;-62
2023/06/27 02:36:27;;;;;;;9.57;6.80;;;12.70;99.90;;;;;;5020557;28;20403;-62
2023/06/27 02:38:54;;;;;;;11.73;7.00;;;12.70;99.90;;;;;;5028650;28;20502;-62
2023/06/27 02:41:24;;;;;;;12.55;6.85;;;12.70;99.90;;;;;;5034853;28;20041;-63
2023/06/27 02:43:50;;;;;;;14.77;7.68;;;12.70;99.90;;;;;;5022928;28;20037;-62
2023/06/27 02:46:16;;;;;;;12.73;7.25;;;12.70;99.90;;;;;;5032601;28;20033;-62
2023/06/27 02:48:42;;;;;;;11.88;7.00;;;12.70;99.90;;;;;;5034930;28;20048;-62
2023/06/27 02:51:07;;;;;;;12.68;6.78;;;12.70;99.90;;;;;;5032627;28;20132;-65
2023/06/27 02:53:33;;;;;;;13.35;6.90;;;12.70;99.90;;;;;;5026126;28;20045;-63
2023/06/27 02:56:02;;;;;;;12.07;7.45;;;12.70;99.90;;;;;;5034933;28;20112;-62
2023/06/27 02:58:29;;;;;;;12.43;7.13;;;12.70;99.90;;;;;;5034794;28;20458;-62
2023/06/27 03:00:55;;;;;;;11.80;7.05;;;12.70;99.90;;;;;;5030660;28;20472;-62
2023/06/27 03:03:20;;;;;;;14.35;7.20;;;12.60;99.90;;;;;;5034333;28;20036;-63
2023/06/27 03:05:46;;;;;;;12.77;7.07;;;12.60;99.90;;;;;;5034911;28;20081;-62
2023/06/27 03:08:11;;;;;;;13.75;7.75;;;12.60;99.90;;;;;;5029621;28;20038;-62
2023/06/27 03:10:37;;;;;;;9.80;6.93;;;12.60;99.90;;;;;;5028057;28;20057;-62
2023/06/27 03:13:03;;;;;;;10.45;7.35;;;12.60;99.90;;;;;;5034633;28;20069;-62
2023/06/27 03:15:28;;;;;;;12.35;7.10;;;12.60;99.90;;;;;;5031456;28;20450;-62
2023/06/27 03:17:54;;;;;;;10.20;7.28;;;12.50;99.90;;;;;;5023433;28;20030;-63
2023/06/27 03:20:21;;;;;;;15.55;7.70;;;12.50;99.90;;;;;;5031577;28;20106;-63
2023/06/27 03:22:46;;;;;;;11.90;7.72;;;12.50;99.90;;;;;;5026804;28;20411;-63
2023/06/27 03:25:12;;;;;;;10.65;7.38;;;12.50;99.90;;;;;;5021438;28;20030;-62
2023/06/27 03:27:38;;;;;;;15.32;7.65;;;12.50;99.90;;;;;;5033387;28;20033;-62
2023/06/27 03:30:04;;;;;;;10.77;7.43;;;12.50;99.90;;;;;;5034156;28;20539;-62
2023/06/27 03:32:30;;;;;;;13.73;7.85;;;12.50;99.90;;;;;;5030512;28;20183;-64
2023/06/27 03:34:56;;;;;;;12.27;7.47;;;12.60;99.90;;;;;;5033395;28;20553;-62
2023/06/27 03:37:21;;;;;;;13.75;7.60;;;12.60;99.90;;;;;;5033966;28;20033;-63
2023/06/27 03:39:47;;;;;;;12.25;7.88;;;12.60;99.90;;;;;;5016660;28;20048;-62
2023/06/27 03:42:13;;;;;;;13.60;7.45;;;12.70;99.90;;;;;;5024555;28;20034;-62
2023/06/27 03:44:38;;;;;;;16.45;8.13;;;12.70;99.90;;;;;;5032747;28;20036;-62
2023/06/27 03:47:05;;;;;;;15.73;8.27;;;12.70;99.90;;;;;;5032656;28;20084;-62
2023/06/27 03:49:30;;;;;;;17.38;8.10;;;12.80;99.90;;;;;;5023609;28;20046;-62
2023/06/27 03:51:56;;;;;;;12.35;7.65;;;12.90;99.90;;;;;;5023422;28;20041;-62
2023/06/27 03:54:22;;;;;;;13.38;7.90;;;12.90;99.90;;;;;;5031272;28;20037;-62
2023/06/27 03:56:48;;;;;;;13.05;7.72;;;13.00;99.90;;;;;;5034158;28;20135;-62
2023/06/27 03:59:13;;;;;;;12.68;8.27;;;13.00;99.90;;;;;;5024208;28;20112;-63
2023/06/27 04:01:41;;;;;;;14.30;8.15;;;13.00;99.90;;;;;;5024307;28;20120;-63
2023/06/27 04:04:10;;;;;;;14.30;8.30;;;12.90;99.90;;;;;;5026053;28;20045;-62
2023/06/27 04:06:36;;;;;;;14.48;8.00;;;12.90;99.90;;;;;;5022319;28;20033;-63
2023/06/27 04:09:04;;;;;;;13.07;7.70;;;12.80;99.90;;;;;;5021576;28;20465;-63
2023/06/27 04:11:31;;;;;;;14.73;8.35;;;12.80;99.90;;;;;;5015644;28;20077;-62
2023/06/27 04:13:58;;;;;;;12.57;8.05;;;12.80;99.90;;;;;;5033812;28;20037;-62
2023/06/27 04:16:25;;;;;;;16.42;8.40;;;12.80;99.90;;;;;;5020209;28;20034;-62
2023/06/27 04:18:50;;;;;;;19.38;8.20;;;12.90;99.90;;;;;;5032535;28;20037;-62
2023/06/27 04:21:18;;;;;;;14.88;8.43;;;12.90;99.90;;;;;;5033488;28;20040;-62
2023/06/27 04:23:43;;;;;;;14.02;8.25;;;13.00;99.90;;;;;;5023067;28;20225;-62
2023/06/27 04:26:14;;;;;;;18.33;8.93;;;13.10;99.90;;;;;;5033051;28;20639;-62
2023/06/27 04:28:41;;;;;;;16.00;8.02;;;13.10;99.90;;;;;;5013550;28;20519;-62
2023/06/27 04:31:06;;;;;;;15.30;9.02;;;13.20;99.90;;;;;;5013082;28;20411;-62
2023/06/27 04:33:32;;;;;;;16.35;9.13;;;13.30;99.90;;;;;;5015681;28;20045;-63
2023/06/27 04:36:01;;;;;;;13.93;8.77;;;13.30;99.90;;;;;;5026491;28;20030;-63
2023/06/27 04:38:30;;;;;;;16.05;9.40;;;13.50;99.90;;;;;;5032776;28;20029;-63
2023/06/27 04:40:56;;;;;;;16.38;9.23;;;13.50;99.90;;;;;;5024572;28;20029;-62
2023/06/27 04:43:22;;;;;;;15.52;8.93;;;13.60;99.90;;;;;;5032091;28;20501;-62
2023/06/27 04:45:48;;;;;;;16.42;9.02;;;13.70;99.90;;;;;;5020303;28;20120;-62
2023/06/27 04:48:14;;;;;;;21.80;9.52;;;13.80;99.90;;;;;;5028814;28;20124;-62
2023/06/27 04:50:39;;;;;;;14.45;9.68;;;13.90;99.90;;;;;;5032661;28;20168;-62
2023/06/27 04:53:05;;;;;;;17.42;9.85;;;14.00;99.90;;;;;;5033012;28;20076;-62
2023/06/27 04:55:32;;;;;;;18.85;9.50;;;14.00;99.90;;;;;;5000334;28;20446;-63
2023/06/27 04:57:57;;;;;;;19.45;9.65;;;14.10;99.90;;;;;;5014295;28;20469;-63
2023/06/27 05:00:23;;;;;;;16.90;9.93;;;14.20;99.90;;;;;;5029867;28;20120;-64
2023/06/27 05:02:50;;;;;;;14.00;9.73;;;14.40;99.90;;;;;;5013499;28;20064;-63
2023/06/27 05:05:16;;;;;;;18.42;9.32;;;14.50;99.90;;;;;;5016202;28;20050;-63
2023/06/27 05:07:42;;;;;;;21.23;9.85;;;14.50;99.90;;;;;;5024499;28;20029;-64
2023/06/27 05:10:08;;;;;;;20.45;10.50;;;14.60;99.90;;;;;;5028879;28;20673;-64
2023/06/27 05:12:33;;;;;;;19.05;11.40;;;14.80;99.90;;;;;;5031114;28;20049;-63
2023/06/27 05:14:59;;;;;;;21.98;11.77;;;14.90;99.90;;;;;;5033159;28;20045;-62
2023/06/27 05:17:24;;;;;;;21.45;11.13;;;15.00;99.90;;;;;;5038502;28;20033;-63
2023/06/27 05:19:50;;;;;;;19.52;11.65;;;15.00;99.90;;;;;;5005628;28;20410;-67
2023/06/27 05:22:16;;;;;;;21.83;12.40;;;15.10;99.90;;;;;;5024399;28;20107;-64
2023/06/27 05:24:41;;;;;;;25.67;12.63;;;15.20;99.90;;;;;;5034963;28;20919;-63
2023/06/27 05:27:07;;;;;;;27.50;13.70;;;15.30;99.90;;;;;;5038745;28;20103;-64
2023/06/27 05:29:33;;;;;;;21.90;13.35;;;15.40;99.90;;;;;;5020448;28;20045;-63
2023/06/27 05:31:58;;;;;;;24.30;13.27;;;15.50;99.90;;;;;;5032176;28;20037;-63
2023/06/27 05:34:25;;;;;;;21.90;12.52;;;15.60;99.90;;;;;;5040761;28;20491;-64
2023/06/27 05:36:50;;;;;;;20.60;12.32;;;15.70;99.90;;;;;;5039375;28;20410;-64
2023/06/27 05:39:16;;;;;;;22.92;12.38;;;15.70;99.90;;;;;;5030744;28;20562;-64
2023/06/27 05:41:42;;;;;;;20.20;12.20;;;15.80;99.90;;;;;;5028338;28;20029;-64
2023/06/27 05:44:07;;;;;;;20.58;11.35;;;15.90;99.90;;;;;;4997653;28;20107;-63
2023/06/27 05:46:38;;;;;;;24.90;11.50;;;16.00;99.90;;;;;;5018498;28;20118;-63
2023/06/27 05:49:05;;;;;;;20.67;11.65;;;16.20;99.90;;;;;;5029906;28;20067;-64
2023/06/27 05:51:30;;;;;;;20.02;10.68;;;16.30;99.90;;;;;;5016880;28;20062;-65
2023/06/27 05:53:56;;;;;;;17.23;9.73;;;16.40;99.90;;;;;;5031191;28;20728;-64
2023/06/27 05:56:22;;;;;;;16.95;9.30;;;16.40;99.90;;;;;;4987623;28;20033;-66
2023/06/27 05:58:47;;;;;;;17.50;9.68;;;16.60;99.90;;;;;;5013515;28;20083;-65
2023/06/27 06:01:13;;;;;;;17.75;8.63;;;16.70;99.90;;;;;;5023366;28;20103;-66
2023/06/27 06:03:40;;;;;;;20.00;8.70;;;16.80;99.90;;;;;;5008031;28;20112;-64
2023/06/27 06:06:06;;;;;;;15.57;8.43;;;16.90;99.90;;;;;;5000702;28;20053;-66
2023/06/27 06:08:32;;;;;;;17.83;8.57;;;17.00;99.90;;;;;;5019854;28;20056;-64
2023/06/27 06:10:58;;;;;;;13.88;8.13;;;17.20;99.90;;;;;;5019203;28;20550;-63
2023/06/27 06:13:23;;;;;;;14.23;7.88;;;17.30;99.90;;;;;;5016309;28;20053;-63
2023/06/27 06:15:49;;;;;;;11.50;5.82;;;17.40;99.90;;;;;;5026269;28;20056;-63
2023/06/27 06:18:14;;;;;;;9.15;5.45;;;17.60;99.90;;;;;;5046947;28;20037;-65
2023/06/27 06:20:40;;;;;;;12.45;6.22;;;17.70;99.90;;;;;;5020486;28;20445;-63
2023/06/27 06:23:06;;;;;;;11.63;6.22;;;17.80;99.90;;;;;;5019016;28;20025;-63
2023/06/27 06:25:31;;;;;;;11.05;6.07;;;17.90;99.90;;;;;;5030344;28;20495;-64
2023/06/27 06:27:57;;;;;;;11.50;6.15;;;18.00;99.90;;;;;;5024859;28;20120;-62
2023/06/27 06:30:23;;;;;;;10.40;5.15;;;18.10;99.90;;;;;;5016891;28;20384;-62
2023/06/27 06:32:48;;;;;;;9.90;4.55;;;18.20;99.90;;;;;;5030782;28;20124;-62
2023/06/27 06:35:14;;;;;;;10.07;4.35;;;18.40;99.90;;;;;;5031128;28;20045;-63
2023/06/27 06:37:39;;;;;;;4.40;3.00;;;18.40;99.90;;;;;;5019112;28;20137;-61
2023/06/27 06:40:06;;;;;;;8.10;3.20;;;18.60;99.90;;;;;;5025905;28;20029;-64
2023/06/27 06:42:31;;;;;;;9.18;3.45;;;18.70;99.90;;;;;;5030899;28;20044;-62
2023/06/27 06:44:57;;;;;;;7.75;3.10;;;18.90;99.90;;;;;;5012263;28;20045;-66
2023/06/27 06:47:22;;;;;;;5.72;3.33;;;19.00;99.90;;;;;;5024158;28;20037;-63
2023/06/27 06:49:48;;;;;;;5.05;3.13;;;19.10;99.90;;;;;;5030923;28;20065;-62
2023/06/27 06:52:13;;;;;;;9.05;2.47;;;19.00;99.90;;;;;;5008566;28;20152;-64
2023/06/27 06:54:43;;;;;;;6.40;2.70;;;19.10;99.90;;;;;;5021987;28;20372;-62
2023/06/27 06:57:10;;;;;;;10.32;2.63;;;19.20;99.90;;;;;;5030810;28;20029;-64
2023/06/27 06:59:36;;;;;;;6.13;2.70;;;19.40;99.90;;;;;;5030879;28;20033;-62
2023/06/27 07:02:01;;;;;;;6.30;2.10;;;19.60;99.90;;;;;;5017597;28;20041;-62
2023/06/27 07:04:27;;;;;;;5.68;2.15;;;19.90;99.90;;;;;;5021058;28;20041;-63
2023/06/27 07:06:52;;;;;;;5.05;2.30;;;20.10;99.90;;;;;;5031221;28;20152;-62
2023/06/27 07:09:18;;;;;;;4.63;2.10;;;20.10;99.90;;;;;;5024509;28;20034;-65
2023/06/27 07:11:44;;;;;;;4.65;1.75;;;20.10;99.90;;;;;;5026335;28;20044;-63
2023/06/27 07:14:09;;;;;;;3.72;1.60;;;20.00;99.90;;;;;;5030611;28;20117;-61
2023/06/27 07:16:35;;;;;;;5.15;1.90;;;20.10;99.90;;;;;;5030906;28;20034;-66
2023/06/27 07:19:02;;;;;;;7.47;2.05;;;20.10;99.90;;;;;;5018359;28;20037;-62
2023/06/27 07:21:28;;;;;;;6.22;2.00;;;20.20;99.70;;;;;;5024177;28;20033;-63
2023/06/27 07:23:53;;;;;;;8.25;2.15;;;20.30;99.70;;;;;;5021686;28;20133;-63
2023/06/27 07:26:19;;;;;;;6.15;2.05;;;20.40;98.80;;;;;;5024050;28;20038;-64
2023/06/27 07:28:45;;;;;;;3.75;1.80;;;20.50;98.60;;;;;;5020178;28;20136;-63
2023/06/27 07:31:10;;;;;;;5.07;1.70;;;20.50;98.50;;;;;;5017102;28;20073;-62
2023/06/27 07:33:36;;;;;;;7.78;2.00;;;20.60;98.50;;;;;;5025684;28;20121;-63
2023/06/27 07:36:04;;;;;;;3.15;1.50;;;20.70;98.30;;;;;;5049321;28;20044;-68
2023/06/27 07:38:31;;;;;;;5.05;1.83;;;20.60;96.70;;;;;;5029281;28;20037;-64
2023/06/27 07:40:57;;;;;;;4.38;1.75;;;20.70;97.00;;;;;;5033759;28;20087;-63
2023/06/27 07:43:23;;;;;;;3.03;1.70;;;20.60;96.70;;;;;;5025243;28;20657;-63
2023/06/27 07:45:48;;;;;;;5.80;1.73;;;20.70;97.00;;;;;;5033216;28;20037;-63
2023/06/27 07:48:14;;;;;;;5.10;1.60;;;20.60;96.10;;;;;;5049170;28;20052;-62
2023/06/27 07:50:39;;;;;;;7.38;1.80;;;20.50;95.20;;;;;;5047364;28;20331;-62
2023/06/27 07:53:05;;;;;;;4.28;1.90;;;20.40;95.30;;;;;;5015695;28;20072;-67
2023/06/27 07:55:31;;;;;;;1.88;1.33;;;20.30;95.50;;;;;;5022451;28;20044;-63
2023/06/27 07:57:56;;;;;;;6.65;1.70;;;20.40;95.90;;;;;;5031008;28;20081;-66
2023/06/27 08:00:22;;;;;;;4.22;1.35;;;20.30;95.80;;;;;;5027726;28;20036;-62
2023/06/27 08:02:48;;;;;;;4.18;1.50;;;20.30;95.40;;;;;;5028698;28;20140;-63
2023/06/27 08:05:14;;;;;;;3.50;1.38;;;20.30;95.90;;;;;;5031342;28;20052;-63
2023/06/27 08:07:39;;;;;;;4.65;1.52;;;20.40;95.90;;;;;;5024791;28;20041;-64
2023/06/27 08:10:07;;;;;;;6.07;1.35;;;20.50;95.70;;;;;;5027433;28;20045;-63
2023/06/27 08:12:32;;;;;;;3.90;1.50;;;20.50;94.50;;;;;;5031677;28;20132;-63
2023/06/27 08:14:58;;;;;;;3.88;1.38;;;20.60;94.60;;;;;;5017118;28;20623;-63
2023/06/27 08:17:23;;;;;;;2.83;1.30;;;20.60;93.40;;;;;;5016618;28;20033;-63
2023/06/27 08:19:49;;;;;;;5.05;1.85;;;20.60;93.20;;;;;;5026170;28;20403;-65
2023/06/27 08:22:15;;;;;;;3.13;1.40;;;20.70;93.40;;;;;;5030197;28;20396;-67
2023/06/27 08:24:40;;;;;;;5.18;1.38;;;20.90;93.10;;;;;;5020941;28;20048;-63
2023/06/27 08:27:06;;;;;;;9.13;1.88;;;20.80;92.80;;;;;;5028484;28;20396;-62
2023/06/27 08:29:33;;;;;;;3.85;1.45;;;20.90;93.00;;;;;;5033078;28;20045;-63
2023/06/27 08:31:59;;;;;;;7.15;1.58;;;21.00;92.90;;;;;;5020963;28;20034;-63
2023/06/27 08:34:33;;;;;;;4.85;1.50;;;21.00;92.10;;;;;;5018659;28;20045;-63
2023/06/27 08:36:59;;;;;;;13.88;1.75;;;21.10;92.20;;;;;;5014829;28;20030;-62
2023/06/27 08:39:26;;;;;;;3.22;1.40;;;21.20;92.00;;;;;;5032951;28;20385;-62
2023/06/27 08:41:51;;;;;;;4.68;1.35;;;21.30;91.20;;;;;;5019439;28;20041;-62
2023/06/27 08:44:17;;;;;;;4.00;1.55;;;21.50;91.90;;;;;;5016333;28;20049;-63
2023/06/27 08:46:46;;;;;;;4.20;1.67;;;21.70;91.60;;;;;;5026717;28;20029;-62
2023/06/27 08:49:19;;;;;;;2.92;1.30;;;21.90;90.70;;;;;;5028804;28;20064;-63
2023/06/27 08:51:48;;;;;;;5.40;1.50;;;21.80;89.90;;;;;;5025612;28;20044;-63
2023/06/27 08:54:23;;;;;;;4.97;1.50;;;21.90;89.40;;;;;;5031835;28;20030;-63
2023/06/27 08:56:50;;;;;;;6.47;1.42;;;21.90;88.30;;;;;;5029908;28;20491;-67
2023/06/27 08:59:19;;;;;;;3.70;1.13;;;21.90;88.50;;;;;;5025795;28;20048;-62
2023/06/27 09:01:46;;;;;;;6.00;1.67;;;21.90;88.30;;;;;;5032392;28;20438;-63
2023/06/27 09:04:12;;;;;;;5.03;1.40;;;22.10;90.30;;;;;;5031177;28;20081;-62
2023/06/27 09:06:40;;;;;;;4.32;1.30;;;22.00;89.80;;;;;;5016144;28;20448;-63
2023/06/27 09:09:06;;;;;;;3.00;1.50;;;22.00;89.20;;;;;;5020995;28;20095;-62
2023/06/27 09:11:32;;;;;;;5.45;1.63;;;22.00;88.10;;;;;;5012944;28;20049;-62
2023/06/27 09:13:58;;;;;;;3.67;1.60;;;21.90;87.30;;;;;;5014163;28;20124;-62
2023/06/27 09:16:24;;;;;;;5.95;1.50;;;22.00;88.00;;;;;;5029775;28;20531;-62
2023/06/27 09:18:50;;;;;;;4.82;1.58;;;21.90;87.30;;;;;;5032051;28;20573;-62
2023/06/27 09:21:16;;;;;;;3.97;1.60;;;21.90;87.40;;;;;;5010185;28;20048;-63
2023/06/27 09:23:43;;;;;;;3.60;1.38;;;21.90;87.60;;;;;;5018992;28;20034;-63
2023/06/27 09:26:10;;;;;;;5.00;1.40;;;21.90;87.70;;;;;;5038278;28;20041;-62
2023/06/27 09:28:50;;;;;;;5.00;1.40;;;21.80;85.60;;;;;;5032323;28;20120;-62
2023/06/27 09:31:22;;;;;;;4.18;1.35;;;21.90;84.80;;;;;;5031956;28;20052;-65
2023/06/27 09:33:48;;;;;;;2.88;1.30;;;21.80;84.20;;;;;;5020441;28;20565;-63
2023/06/27 09:36:40;;;;;;;3.05;1.33;;;21.80;84.30;;;;;;4998286;28;20037;-64
2023/06/27 09:39:12;;;;;;;1.60;0.95;;;21.70;81.70;;;;;;5012401;28;20124;-66
2023/06/27 09:41:49;;;;;;;6.30;1.67;;;21.70;83.60;;;;;;5022795;28;20037;-65
2023/06/27 09:44:20;;;;;;;1.98;1.20;;;21.80;83.70;;;;;;5031595;28;20048;-67
2023/06/27 09:46:47;;;;;;;7.72;1.67;;;21.90;85.40;;;;;;5027208;28;20578;-66
2023/06/27 09:49:14;;;;;;;4.47;1.40;;;22.00;85.70;;;;;;5018660;28;20048;-66
2023/06/27 09:51:43;;;;;;;2.45;1.23;;;22.10;85.40;;;;;;5034945;28;20041;-65
2023/06/27 09:54:11;;;;;;;6.20;1.50;;;22.20;85.40;;;;;;5032856;28;20131;-66
2023/06/27 09:56:37;;;;;;;3.55;1.20;;;22.10;83.80;;;;;;5034470;28;20026;-66
2023/06/27 09:59:10;;;;;;;4.43;1.70;;;22.20;85.90;;;;;;5024546;28;20103;-66
2023/06/27 10:01:40;;;;;;;6.38;1.60;;;22.20;84.70;;;;;;5031152;28;20034;-66
2023/06/27 10:04:06;;;;;;;4.10;1.55;;;22.10;83.50;;;;;;5027397;28;20037;-65
2023/06/27 10:06:33;;;;;;;3.85;1.48;;;22.10;84.80;;;;;;5029983;28;20557;-66
2023/06/27 10:08:59;;;;;;;5.70;1.42;;;22.10;84.30;;;;;;5039434;28;20037;-65
2023/06/27 10:11:26;;;;;;;3.80;1.20;;;22.10;84.10;;;;;;5031699;28;20049;-66
2023/06/27 10:13:52;;;;;;;4.65;1.35;;;22.20;85.50;;;;;;5024259;28;20135;-66
2023/06/27 10:16:18;;;;;;;3.97;1.73;;;22.30;86.00;;;;;;5030076;28;20104;-66
2023/06/27 10:18:44;;;;;;;4.15;1.60;;;22.30;84.30;;;;;;5031110;28;20048;-65
2023/06/27 10:21:10;;;;;;;8.48;1.40;;;22.20;81.90;;;;;;5031085;28;20108;-66
2023/06/27 10:23:41;;;;;;;4.18;1.17;;;22.10;81.60;;;;;;5023898;28;20033;-66
2023/06/27 10:26:09;;;;;;;2.92;1.20;;;22.10;81.30;;;;;;5030976;28;20117;-66
2023/06/27 10:28:34;;;;;;;12.55;1.60;;;22.10;80.30;;;;;;5031003;28;20038;-66
2023/06/27 10:31:02;;;;;;;9.02;1.70;;;22.10;81.80;;;;;;5023491;28;20033;-66
2023/06/27 10:33:28;;;;;;;2.33;1.10;;;22.40;83.50;;;;;;5012581;28;20041;-66
2023/06/27 10:36:05;;;;;;;3.47;1.15;;;22.60;84.40;;;;;;5031468;28;20095;-66
2023/06/27 10:38:39;;;;;;;1.83;1.10;;;22.70;79.70;;;;;;5025623;28;20040;-66
2023/06/27 10:41:09;;;;;;;3.95;1.13;;;22.70;80.20;;;;;;5026063;28;20034;-65
2023/06/27 10:43:54;;;;;;;2.95;1.20;;;22.80;81.00;;;;;;5041797;28;20095;-66
2023/06/27 10:46:26;;;;;;;2.85;1.10;;;22.90;80.40;;;;;;5017201;28;20087;-66
2023/06/27 10:48:53;;;;;;;3.17;1.27;;;23.10;77.20;;;;;;5017774;28;20097;-66
2023/06/27 10:51:21;;;;;;;3.70;1.17;;;23.30;79.40;;;;;;5031116;28;20107;-66
2023/06/27 10:54:09;;;;;;;5.47;1.17;;;23.50;78.70;;;;;;5007467;28;20049;-67
2023/06/27 10:56:39;;;;;;;2.65;0.90;;;23.40;76.30;;;;;;5028911;28;20535;-66
2023/06/27 10:59:09;;;;;;;3.03;1.15;;;23.60;76.90;;;;;;5016559;28;20092;-65
2023/06/27 11:01:34;;;;;;;2.10;1.20;;;23.70;76.20;;;;;;5034660;28;20513;-65
2023/06/27 11:04:22;;;;;;;3.67;1.20;;;23.80;76.80;;;;;;5027335;28;20065;-66
2023/06/27 11:06:48;;;;;;;6.38;1.30;;;23.70;76.40;;;;;;5026918;28;20069;-66
2023/06/27 11:09:16;;;;;;;4.30;1.27;;;23.80;77.20;;;;;;5034771;28;20131;-66
2023/06/27 11:11:53;;;;;;;5.25;1.20;;;23.70;75.60;;;;;;5023565;28;20037;-66
2023/06/27 11:14:34;;;;;;;4.85;1.35;;;23.80;76.20;;;;;;5026055;28;20533;-66
2023/06/27 11:17:01;;;;;;;6.10;1.50;;;23.70;74.70;;;;;;5034596;28;20030;-66
2023/06/27 11:19:27;;;;;;;5.20;1.30;;;23.70;77.10;;;;;;5027152;28;20499;-66
2023/06/27 11:21:52;;;;;;;2.78;1.50;;;23.40;77.50;;;;;;5026437;28;20107;-66
2023/06/27 11:24:19;;;;;;;4.43;1.40;;;23.30;78.30;;;;;;5043150;28;20041;-66
2023/06/27 11:26:51;;;;;;;6.07;1.48;;;23.50;78.30;;;;;;5054337;28;20036;-67
2023/06/27 11:29:17;;;;;;;4.65;1.42;;;23.40;79.40;;;;;;5034499;28;20050;-66
2023/06/27 11:31:42;;;;;;;4.28;1.50;;;23.40;78.70;;;;;;5037716;28;20033;-66
2023/06/27 11:34:08;;;;;;;5.03;1.50;;;23.10;78.80;;;;;;5038789;28;20037;-66
2023/06/27 11:36:38;;;;;;;3.83;1.30;;;23.00;79.10;;;;;;5025734;28;20083;-66
2023/06/27 11:39:05;;;;;;;3.13;1.27;;;23.30;79.10;;;;;;5015062;28;20488;-66
2023/06/27 11:41:31;;;;;;;3.45;1.30;;;23.20;78.50;;;;;;5033957;28;20037;-66
2023/06/27 11:43:56;;;;;;;4.97;1.50;;;23.40;78.20;;;;;;5033981;28;20049;-66
2023/06/27 11:46:22;;;;;;;5.55;1.40;;;23.40;78.20;;;;;;5033871;28;20045;-65
2023/06/27 11:48:48;;;;;;;4.63;1.50;;;23.20;78.30;;;;;;5019515;28;20116;-66
2023/06/27 11:51:14;;;;;;;5.97;1.40;;;23.00;78.90;;;;;;5030942;28;20071;-64
2023/06/27 11:53:50;;;;;;;5.82;1.50;;;22.80;78.00;;;;;;5021424;28;20084;-66
2023/06/27 11:56:17;;;;;;;4.22;1.38;;;22.70;77.50;;;;;;5020017;28;20077;-67
2023/06/27 11:58:46;;;;;;;6.18;1.20;;;22.70;77.90;;;;;;5025874;28;20396;-65
2023/06/27 12:01:14;;;;;;;6.32;1.40;;;22.90;77.70;;;;;;5013847;28;20400;-67
2023/06/27 12:03:45;;;;;;;6.30;1.45;;;23.20;77.40;;;;;;5031013;28;20040;-66
2023/06/27 12:06:27;;;;;;;4.47;1.23;;;23.70;77.30;;;;;;5030859;28;20041;-66
2023/06/27 12:08:52;;;;;;;4.65;1.40;;;23.70;74.80;;;;;;5010435;28;20048;-65
2023/06/27 12:11:34;;;;;;;6.05;1.45;;;23.50;76.40;;;;;;5021973;28;20030;-66
2023/06/27 12:14:01;;;;;;;3.53;1.30;;;23.90;76.60;;;;;;5023541;28;20084;-66
2023/06/27 12:16:33;;;;;;;2.80;1.20;;;23.70;74.70;;;;;;5033776;28;20033;-66
2023/06/27 12:19:08;;;;;;;5.03;1.23;;;23.50;74.20;;;;;;5021575;28;20057;-65
2023/06/27 12:21:34;;;;;;;5.07;1.42;;;23.60;73.50;;;;;;5035339;28;20116;-66
2023/06/27 12:24:00;;;;;;;4.00;1.60;;;23.40;73.40;;;;;;5052354;28;20040;-66
2023/06/27 12:26:26;;;;;;;5.68;1.23;;;23.40;74.20;;;;;;5021321;28;20034;-65
2023/06/27 12:28:59;;;;;;;4.45;1.50;;;23.40;74.20;;;;;;5020106;28;20381;-66
2023/06/27 12:31:25;;;;;;;3.40;1.50;;;23.40;74.90;;;;;;5050861;28;20063;-66
2023/06/27 12:33:52;;;;;;;6.22;2.15;;;23.30;75.10;;;;;;5053155;28;20048;-66
2023/06/27 12:36:18;;;;;;;7.63;1.40;;;23.60;76.50;;;;;;5040962;28;20467;-65
2023/06/27 12:38:44;;;;;;;4.43;1.30;;;23.50;75.70;;;;;;5025308;28;20415;-66
2023/06/27 12:41:09;;;;;;;4.03;1.30;;;23.30;75.10;;;;;;5041328;28;20037;-66
2023/06/27 12:43:35;;;;;;;5.30;1.52;;;23.40;75.50;;;;;;5029091;28;20029;-67
2023/06/27 12:46:02;;;;;;;5.03;1.38;;;23.80;74.80;;;;;;5032477;28;20486;-66
2023/06/27 12:48:27;;;;;;;4.82;1.48;;;23.90;75.00;;;;;;5014302;28;20530;-66
2023/06/27 12:50:53;;;;;;;4.35;1.40;;;24.10;75.00;;;;;;5013358;28;20038;-66
2023/06/27 12:53:18;;;;;;;5.32;1.48;;;24.20;74.20;;;;;;5017567;28;20041;-66
2023/06/27 12:55:44;;;;;;;5.40;1.42;;;24.40;73.20;;;;;;5025441;28;20431;-66
2023/06/27 12:58:11;;;;;;;4.28;1.52;;;24.30;72.30;;;;;;5028308;28;20040;-65
2023/06/27 13:00:41;;;;;;;3.38;1.25;;;24.20;72.00;;;;;;5017553;28;20396;-65
2023/06/27 13:03:07;;;;;;;3.17;1.17;;;24.30;72.70;;;;;;5018827;28;20128;-66
2023/06/27 13:05:32;;;;;;;4.45;1.48;;;24.30;73.00;;;;;;5052515;28;20518;-65
2023/06/27 13:07:59;;;;;;;4.35;1.52;;;23.90;73.80;;;;;;5051556;28;20522;-65
2023/06/27 13:10:27;;;;;;;6.30;1.48;;;23.90;73.90;;;;;;5021956;28;20033;-66
2023/06/27 13:12:56;;;;;;;6.88;1.60;;;23.90;73.20;;;;;;5025368;28;20065;-66
2023/06/27 13:15:22;;;;;;;8.00;1.40;;;23.90;73.30;;;;;;5031098;28;20042;-66
2023/06/27 13:17:47;;;;;;;5.30;1.48;;;24.00;73.80;;;;;;4996471;28;20040;-66
2023/06/27 13:20:14;;;;;;;3.63;1.35;;;23.90;74.10;;;;;;5028138;28;20091;-66
2023/06/27 13:22:40;;;;;;;6.68;1.50;;;23.80;73.50;;;;;;5012654;28;20511;-66
2023/06/27 13:25:06;;;;;;;4.40;1.35;;;23.30;73.70;;;;;;5014621;28;20041;-66
2023/06/27 13:27:33;;;;;;;3.58;1.58;;;23.00;74.30;;;;;;5018056;28;20045;-66
2023/06/27 13:29:59;;;;;;;3.92;1.60;;;22.90;74.90;;;;;;5031834;28;20052;-66
2023/06/27 13:32:25;;;;;;;4.50;1.70;;;22.80;74.80;;;;;;5027713;28;20255;-65
2023/06/27 13:34:51;;;;;;;4.38;1.23;;;22.60;75.40;;;;;;5029249;28;20072;-66
2023/06/27 13:42:27;;;;;;;4.47;1.42;;;23.20;75.00;;;;;;5607135;23;20116;-68
2023/06/27 13:45:39;;;;;;;4.65;1.40;;;23.40;73.80;;;;;;5035964;28;20022;-69
2023/06/27 13:48:43;;;;;;;5.30;1.50;;;23.40;72.30;;;;;;5112877;23;20077;-69
2023/06/27 13:51:09;;;;;;;5.45;1.58;;;23.50;74.40;;;;;;5010911;28;20075;-69
2023/06/27 13:53:35;;;;;;;3.28;1.20;;;23.70;73.20;;;;;;5012832;28;20037;-69
2023/06/27 13:58:35;;;;;;;5.03;1.30;;;24.30;72.60;;;;;;5993561;23;20489;-69
2023/06/27 14:01:01;;;;;;;6.43;1.50;;;24.30;72.00;;;;;;4999116;28;20341;-69
2023/06/27 14:11:14;;;;;;;2.75;1.30;;;23.90;73.10;;;;;;5612749;23;20053;-68